Time;durP1;ratioP1;P1;durP2;ratioP2;P2;SDS_P1;SDS_P2;PMS_P1;PMS_P2;Temp;Humidity;BMP_temperature;BMP_pressure;BME280_temperature;BME280_humidity;BME280_pressure;Samples;Min_cycle;Max_cycle;Signal;HPM_P1;HPM_P2
2021/11/26 00:01:03;;;;;;;6.73;4.13;;;2.30;99.90;;;;;;4973807;28;20174;-51
2021/11/26 00:03:28;;;;;;;7.13;4.37;;;2.20;99.90;;;;;;4974190;28;20418;-46
2021/11/26 00:05:54;;;;;;;5.77;4.13;;;2.20;99.90;;;;;;4973520;28;20522;-49
2021/11/26 00:08:19;;;;;;;8.10;4.33;;;2.20;99.90;;;;;;4973857;28;20649;-45
2021/11/26 00:10:45;;;;;;;6.43;4.07;;;2.20;99.90;;;;;;4973745;28;20264;-43
2021/11/26 00:13:12;;;;;;;6.23;4.50;;;2.20;99.90;;;;;;4973976;28;20177;-43
2021/11/26 00:15:40;;;;;;;8.23;4.57;;;2.20;99.90;;;;;;4973460;28;20289;-50
2021/11/26 00:18:10;;;;;;;7.57;4.60;;;2.20;99.90;;;;;;4972318;28;20520;-46
2021/11/26 00:20:38;;;;;;;8.10;4.57;;;2.20;99.90;;;;;;4973976;28;20488;-46
2021/11/26 00:23:05;;;;;;;7.70;4.70;;;2.20;99.90;;;;;;4973499;28;20913;-49
2021/11/26 00:25:31;;;;;;;7.20;4.27;;;2.20;99.90;;;;;;4973517;28;20927;-45
2021/11/26 00:27:57;;;;;;;6.57;4.10;;;2.20;99.90;;;;;;4973396;28;20441;-45
2021/11/26 00:30:22;;;;;;;8.40;4.60;;;2.20;99.90;;;;;;4973572;28;20533;-47
2021/11/26 00:32:48;;;;;;;8.20;4.70;;;2.20;99.90;;;;;;4973493;28;20285;-46
2021/11/26 00:35:14;;;;;;;7.40;4.30;;;2.20;99.90;;;;;;4973208;28;20177;-44
2021/11/26 00:37:39;;;;;;;8.43;4.77;;;2.20;99.90;;;;;;4973228;28;20170;-45
2021/11/26 00:40:06;;;;;;;7.60;4.80;;;2.20;99.90;;;;;;4973406;28;20178;-46
2021/11/26 00:42:31;;;;;;;8.63;4.73;;;2.20;99.90;;;;;;4973220;28;20363;-45
2021/11/26 00:44:57;;;;;;;7.97;4.50;;;2.20;99.90;;;;;;4973134;28;20855;-45
2021/11/26 00:47:22;;;;;;;7.27;4.43;;;2.20;99.90;;;;;;4973441;28;20225;-45
2021/11/26 00:49:48;;;;;;;10.17;4.73;;;2.20;99.90;;;;;;4972724;28;20177;-46
2021/11/26 00:52:14;;;;;;;7.27;4.60;;;2.20;99.90;;;;;;4973350;28;20194;-45
2021/11/26 00:54:40;;;;;;;8.20;5.03;;;2.20;99.90;;;;;;4972819;28;20216;-44
2021/11/26 00:57:08;;;;;;;6.33;4.23;;;2.20;99.90;;;;;;4973026;28;20198;-47
2021/11/26 00:59:34;;;;;;;8.57;4.70;;;2.20;99.90;;;;;;4973151;28;20169;-48
2021/11/26 01:02:01;;;;;;;6.77;4.30;;;2.10;99.90;;;;;;4999114;23;20281;-40
2021/11/26 01:04:26;;;;;;;6.40;4.17;;;2.10;99.90;;;;;;5003950;28;20425;-41
2021/11/26 01:06:52;;;;;;;8.50;4.70;;;2.10;99.90;;;;;;5009206;28;20403;-49
2021/11/26 01:09:18;;;;;;;8.47;4.80;;;2.10;99.90;;;;;;5011723;28;20171;-43
2021/11/26 01:11:43;;;;;;;7.80;4.63;;;2.10;99.90;;;;;;5002119;28;20548;-42
2021/11/26 01:14:09;;;;;;;8.97;5.03;;;2.00;99.90;;;;;;4992176;28;20415;-42
2021/11/26 01:16:35;;;;;;;9.47;5.30;;;2.00;99.90;;;;;;4991910;28;20279;-41
2021/11/26 01:19:00;;;;;;;9.33;5.17;;;2.00;99.90;;;;;;4992753;28;20252;-47
2021/11/26 01:21:26;;;;;;;8.23;5.17;;;2.00;99.90;;;;;;4991715;28;20194;-43
2021/11/26 01:23:52;;;;;;;8.77;5.23;;;2.00;99.90;;;;;;4991031;28;20722;-43
2021/11/26 01:26:17;;;;;;;8.63;5.30;;;2.00;99.90;;;;;;4991733;28;20517;-42
2021/11/26 01:28:43;;;;;;;8.53;5.30;;;2.00;99.90;;;;;;4992117;28;20231;-45
2021/11/26 01:31:09;;;;;;;8.90;5.83;;;2.00;99.90;;;;;;4991936;28;20252;-42
2021/11/26 01:33:34;;;;;;;8.37;4.57;;;2.00;99.90;;;;;;4992413;28;20177;-42
2021/11/26 01:36:00;;;;;;;7.47;4.67;;;2.00;99.90;;;;;;4991967;28;20544;-45
2021/11/26 01:38:26;;;;;;;8.30;4.80;;;1.90;99.90;;;;;;4991882;28;20257;-44
2021/11/26 01:40:52;;;;;;;9.10;5.30;;;1.90;99.90;;;;;;4992043;28;20846;-47
2021/11/26 01:43:20;;;;;;;8.07;4.73;;;1.90;99.90;;;;;;4992049;28;20200;-43
2021/11/26 01:45:49;;;;;;;8.10;4.87;;;1.90;99.90;;;;;;4991827;28;20173;-42
2021/11/26 01:48:15;;;;;;;8.50;5.03;;;2.00;99.90;;;;;;4991856;28;20911;-49
2021/11/26 01:50:41;;;;;;;7.93;4.30;;;1.90;99.90;;;;;;4992094;28;20860;-44
2021/11/26 01:53:07;;;;;;;9.33;4.67;;;2.00;99.90;;;;;;4991738;28;20432;-41
2021/11/26 01:55:34;;;;;;;8.80;4.90;;;2.00;99.90;;;;;;4991640;28;20170;-49
2021/11/26 01:58:00;;;;;;;8.17;5.17;;;2.10;99.90;;;;;;4991670;28;20462;-45
2021/11/26 02:00:33;;;;;;;9.40;4.97;;;2.10;99.90;;;;;;4992049;28;20443;-43
2021/11/26 02:02:59;;;;;;;10.03;5.73;;;2.10;99.90;;;;;;4995315;28;20854;-45
2021/11/26 02:05:25;;;;;;;8.97;4.87;;;2.10;99.90;;;;;;4995477;28;20573;-42
2021/11/26 02:07:51;;;;;;;9.40;5.40;;;2.10;99.90;;;;;;4995418;28;20292;-42
2021/11/26 02:10:18;;;;;;;7.90;4.97;;;2.10;99.90;;;;;;4996050;28;20464;-47
2021/11/26 02:12:44;;;;;;;8.30;4.97;;;2.00;99.90;;;;;;4995326;28;20205;-45
2021/11/26 02:15:16;;;;;;;7.57;4.63;;;2.20;99.90;;;;;;4994924;28;20400;-43
2021/11/26 02:17:42;;;;;;;9.27;5.10;;;2.10;99.90;;;;;;4995909;28;20536;-42
2021/11/26 02:20:16;;;;;;;8.87;5.37;;;2.20;99.90;;;;;;4995317;28;20392;-41
2021/11/26 02:22:42;;;;;;;9.93;5.27;;;2.10;99.90;;;;;;4995417;28;20185;-45
2021/11/26 02:25:09;;;;;;;7.60;4.83;;;2.20;99.90;;;;;;4995011;28;20410;-41
2021/11/26 02:27:36;;;;;;;9.10;5.60;;;2.20;99.90;;;;;;4994627;28;20184;-42
2021/11/26 02:30:11;;;;;;;8.30;5.30;;;2.20;99.90;;;;;;4995535;28;20412;-44
2021/11/26 02:32:37;;;;;;;8.07;4.80;;;2.20;99.90;;;;;;4994725;28;20431;-44
2021/11/26 02:35:02;;;;;;;10.07;5.63;;;2.20;99.90;;;;;;4994749;28;20415;-43
2021/11/26 02:37:28;;;;;;;8.50;5.00;;;2.20;99.90;;;;;;4994762;28;20197;-43
2021/11/26 02:39:53;;;;;;;9.33;5.07;;;2.20;99.90;;;;;;4994804;28;20206;-43
2021/11/26 02:42:26;;;;;;;9.30;5.07;;;2.20;99.90;;;;;;4994921;28;20193;-45
2021/11/26 02:44:52;;;;;;;9.10;5.30;;;2.20;99.90;;;;;;4994841;28;20518;-49
2021/11/26 02:47:18;;;;;;;8.17;5.03;;;2.20;99.90;;;;;;4994546;28;20416;-43
2021/11/26 02:49:43;;;;;;;9.33;5.27;;;2.20;99.90;;;;;;4994810;28;20351;-43
2021/11/26 02:52:09;;;;;;;9.07;5.30;;;2.20;99.90;;;;;;4994680;28;20694;-48
2021/11/26 02:54:34;;;;;;;8.17;4.93;;;2.20;99.90;;;;;;4994683;28;20173;-45
2021/11/26 02:57:00;;;;;;;8.93;5.13;;;2.20;99.90;;;;;;4994433;28;20201;-46
2021/11/26 02:59:26;;;;;;;9.37;5.50;;;2.20;99.90;;;;;;4994686;28;20176;-43
2021/11/26 03:01:51;;;;;;;9.33;5.20;;;2.20;99.90;;;;;;4994457;28;20239;-43
2021/11/26 03:04:17;;;;;;;7.90;5.10;;;2.20;99.90;;;;;;4994555;28;20177;-44
2021/11/26 03:06:42;;;;;;;9.47;5.50;;;2.20;99.90;;;;;;4994489;28;20177;-47
2021/11/26 03:09:08;;;;;;;8.57;5.23;;;2.20;99.90;;;;;;4994455;28;20204;-51
2021/11/26 03:11:33;;;;;;;9.53;5.50;;;2.20;99.90;;;;;;4994249;28;20583;-44
2021/11/26 03:13:59;;;;;;;9.93;5.40;;;2.20;99.90;;;;;;4994327;28;20660;-49
2021/11/26 03:16:26;;;;;;;9.03;5.17;;;2.20;99.90;;;;;;4994001;28;20244;-49
2021/11/26 03:18:52;;;;;;;9.90;5.10;;;2.20;99.90;;;;;;4994159;28;20445;-43
2021/11/26 03:21:18;;;;;;;8.93;4.87;;;2.20;99.90;;;;;;4994487;28;20616;-42
2021/11/26 03:23:43;;;;;;;8.60;5.20;;;2.20;99.90;;;;;;4994082;28;20444;-48
2021/11/26 03:26:09;;;;;;;7.90;5.20;;;2.20;99.90;;;;;;4993994;28;20181;-43
2021/11/26 03:28:34;;;;;;;9.37;5.60;;;2.30;99.90;;;;;;4994112;28;20644;-45
2021/11/26 03:31:00;;;;;;;9.93;5.57;;;2.30;99.90;;;;;;4994094;28;20208;-42
2021/11/26 03:33:27;;;;;;;9.70;5.63;;;2.30;99.90;;;;;;4993761;28;20280;-45
2021/11/26 03:35:52;;;;;;;8.50;5.10;;;2.30;99.90;;;;;;4993878;28;20197;-47
2021/11/26 03:38:18;;;;;;;8.53;5.37;;;2.30;99.90;;;;;;4993807;28;20428;-43
2021/11/26 03:40:44;;;;;;;9.23;5.50;;;2.30;99.90;;;;;;4994032;28;20189;-44
2021/11/26 03:43:10;;;;;;;8.03;4.90;;;2.30;99.90;;;;;;4993921;28;20195;-42
2021/11/26 03:45:36;;;;;;;7.50;5.00;;;2.30;99.90;;;;;;4993381;28;20662;-40
2021/11/26 03:48:01;;;;;;;9.87;5.30;;;2.20;99.90;;;;;;4993813;28;20540;-42
2021/11/26 03:50:28;;;;;;;9.50;5.20;;;2.30;99.90;;;;;;4993047;28;20189;-50
2021/11/26 03:52:54;;;;;;;8.73;4.83;;;2.20;99.90;;;;;;4993622;28;20231;-45
2021/11/26 03:55:23;;;;;;;9.93;5.50;;;2.20;99.90;;;;;;4993791;28;20420;-42
2021/11/26 03:57:50;;;;;;;8.43;4.83;;;2.20;99.90;;;;;;4993845;28;20177;-47
2021/11/26 04:00:17;;;;;;;9.53;5.20;;;2.20;99.90;;;;;;4993151;28;20409;-45
2021/11/26 04:02:43;;;;;;;8.77;4.50;;;2.10;99.90;;;;;;4993097;28;20444;-42
2021/11/26 04:05:10;;;;;;;7.67;4.83;;;2.10;99.90;;;;;;4993102;28;20408;-43
2021/11/26 04:07:36;;;;;;;8.60;4.53;;;2.10;99.90;;;;;;4993555;28;20416;-44
2021/11/26 04:10:01;;;;;;;9.73;4.83;;;2.10;99.90;;;;;;4993136;28;20775;-42
2021/11/26 04:12:30;;;;;;;8.97;5.47;;;2.10;99.90;;;;;;4993309;28;20189;-41
2021/11/26 04:14:56;;;;;;;7.47;4.47;;;2.10;99.90;;;;;;4992862;28;20173;-42
2021/11/26 04:17:23;;;;;;;9.13;5.43;;;2.10;99.90;;;;;;4993000;28;20464;-42
2021/11/26 04:19:48;;;;;;;8.10;5.13;;;2.10;99.90;;;;;;4993215;28;20161;-44
2021/11/26 04:22:14;;;;;;;8.83;4.97;;;2.10;99.90;;;;;;4992890;28;20434;-42
2021/11/26 04:24:40;;;;;;;8.67;4.93;;;2.10;99.90;;;;;;4992569;28;20216;-51
2021/11/26 04:27:05;;;;;;;8.27;4.80;;;2.10;99.90;;;;;;4993058;28;20192;-45
2021/11/26 04:29:31;;;;;;;7.77;5.00;;;2.20;99.90;;;;;;4992856;28;20169;-43
2021/11/26 04:31:57;;;;;;;9.10;5.23;;;2.10;99.90;;;;;;4992674;28;20201;-43
2021/11/26 04:34:22;;;;;;;9.77;4.70;;;2.10;99.90;;;;;;4993051;28;20274;-43
2021/11/26 04:36:48;;;;;;;7.97;4.50;;;2.10;99.90;;;;;;4992737;28;20292;-44
2021/11/26 04:39:14;;;;;;;9.70;5.47;;;2.10;99.90;;;;;;4992851;28;20180;-41
2021/11/26 04:41:40;;;;;;;9.60;5.00;;;2.10;99.90;;;;;;4992541;28;20200;-48
2021/11/26 04:44:06;;;;;;;8.27;5.07;;;2.10;99.90;;;;;;4992691;28;20404;-42
2021/11/26 04:46:31;;;;;;;8.50;4.70;;;2.10;99.90;;;;;;4992569;28;20173;-42
2021/11/26 04:48:57;;;;;;;9.80;5.03;;;2.20;99.90;;;;;;4992377;28;20193;-47
2021/11/26 04:51:22;;;;;;;9.17;5.27;;;2.20;99.90;;;;;;4992716;28;20612;-42
2021/11/26 04:53:48;;;;;;;9.50;5.37;;;2.20;99.90;;;;;;4992564;28;20201;-43
2021/11/26 04:56:13;;;;;;;8.73;5.13;;;2.20;99.90;;;;;;4992291;28;20200;-42
2021/11/26 04:58:39;;;;;;;7.40;4.90;;;2.20;99.90;;;;;;4992568;28;20231;-43
2021/11/26 05:01:05;;;;;;;8.73;5.13;;;2.20;99.90;;;;;;4992473;28;20189;-42
2021/11/26 05:03:31;;;;;;;7.13;4.50;;;2.10;99.90;;;;;;4992548;28;20185;-42
2021/11/26 05:05:59;;;;;;;9.57;4.87;;;2.10;99.90;;;;;;4992299;28;20465;-42
2021/11/26 05:08:26;;;;;;;9.03;5.00;;;2.10;99.90;;;;;;4992320;28;20428;-43
2021/11/26 05:10:53;;;;;;;7.83;5.00;;;2.10;99.90;;;;;;4992499;28;20404;-44
2021/11/26 05:13:21;;;;;;;10.33;5.40;;;2.10;99.90;;;;;;4990991;28;20456;-45
2021/11/26 05:15:46;;;;;;;8.13;4.63;;;2.10;99.90;;;;;;4992549;28;20797;-45
2021/11/26 05:18:12;;;;;;;7.67;4.40;;;2.10;99.90;;;;;;4992339;28;20439;-46
2021/11/26 05:20:37;;;;;;;8.87;4.80;;;2.10;99.90;;;;;;4991817;28;20235;-44
2021/11/26 05:23:03;;;;;;;10.87;4.90;;;2.20;99.90;;;;;;4992442;28;20295;-45
2021/11/26 05:25:29;;;;;;;9.53;4.97;;;2.20;99.90;;;;;;4991546;28;20263;-42
2021/11/26 05:27:55;;;;;;;10.20;5.53;;;2.20;99.90;;;;;;4992068;28;20184;-43
2021/11/26 05:30:21;;;;;;;9.23;4.97;;;2.20;99.90;;;;;;4992457;28;20206;-44
2021/11/26 05:32:48;;;;;;;8.57;5.20;;;2.20;99.90;;;;;;4991849;28;20192;-47
2021/11/26 05:35:14;;;;;;;9.07;5.23;;;2.20;99.90;;;;;;4993013;28;20175;-41
2021/11/26 05:37:41;;;;;;;10.37;5.40;;;2.20;99.90;;;;;;4996078;28;20958;-46
2021/11/26 05:40:08;;;;;;;10.10;5.40;;;2.20;99.90;;;;;;4995987;28;20852;-44
2021/11/26 05:42:34;;;;;;;10.83;5.13;;;2.20;99.90;;;;;;4995949;28;20747;-42
2021/11/26 05:45:01;;;;;;;9.17;5.10;;;2.20;99.90;;;;;;4995765;28;20476;-42
2021/11/26 05:47:26;;;;;;;10.53;5.20;;;2.30;99.90;;;;;;4996101;28;20416;-44
2021/11/26 05:49:52;;;;;;;9.40;4.93;;;2.20;99.90;;;;;;4995799;28;20769;-42
2021/11/26 05:52:17;;;;;;;10.47;5.37;;;2.30;99.90;;;;;;4995629;28;20197;-44
2021/11/26 05:54:43;;;;;;;7.50;4.73;;;2.30;99.90;;;;;;4997545;28;20687;-43
2021/11/26 05:57:09;;;;;;;7.83;4.07;;;2.30;99.90;;;;;;5014869;28;20197;-41
2021/11/26 05:59:35;;;;;;;11.57;5.07;;;2.30;99.90;;;;;;5015384;28;20168;-42
2021/11/26 06:02:00;;;;;;;8.67;4.50;;;2.30;99.90;;;;;;4998411;28;20209;-43
2021/11/26 06:04:26;;;;;;;11.53;5.30;;;2.30;99.90;;;;;;4995646;28;20776;-44
2021/11/26 06:06:52;;;;;;;9.50;4.97;;;2.30;99.90;;;;;;4995480;28;20177;-45
2021/11/26 06:09:18;;;;;;;8.30;5.17;;;2.30;99.90;;;;;;4995297;28;20185;-43
2021/11/26 06:11:43;;;;;;;9.43;4.87;;;2.20;99.90;;;;;;4994253;28;20563;-43
2021/11/26 06:14:09;;;;;;;9.27;4.40;;;2.30;99.90;;;;;;4996558;28;20191;-43
2021/11/26 06:16:34;;;;;;;9.60;5.03;;;2.30;99.90;;;;;;5000502;28;20208;-47
2021/11/26 06:19:00;;;;;;;9.50;4.70;;;2.30;99.90;;;;;;4994522;28;20732;-43
2021/11/26 06:21:26;;;;;;;9.57;4.60;;;2.30;99.90;;;;;;4995493;28;20587;-50
2021/11/26 06:23:51;;;;;;;8.60;4.97;;;2.30;99.90;;;;;;4994577;28;20203;-46
2021/11/26 06:26:17;;;;;;;8.37;4.60;;;2.30;99.90;;;;;;4994940;28;20555;-43
2021/11/26 06:28:42;;;;;;;9.67;5.17;;;2.30;99.90;;;;;;4994997;28;20231;-44
2021/11/26 06:31:08;;;;;;;12.30;5.10;;;2.30;99.90;;;;;;4995129;28;20193;-43
2021/11/26 06:33:34;;;;;;;10.13;4.93;;;2.30;99.90;;;;;;4997164;28;20661;-46
2021/11/26 06:35:59;;;;;;;10.30;5.23;;;2.30;99.90;;;;;;4993130;28;20227;-42
2021/11/26 06:38:25;;;;;;;10.77;5.10;;;1.70;99.90;;;;;;4995002;28;20235;-41
2021/11/26 06:40:50;;;;;;;9.63;4.60;;;2.30;99.90;;;;;;4994970;28;20189;-43
2021/11/26 06:43:16;;;;;;;9.00;4.67;;;2.30;99.90;;;;;;4994837;28;20189;-49
2021/11/26 06:45:43;;;;;;;10.70;5.23;;;2.30;99.90;;;;;;4999283;28;20174;-41
2021/11/26 06:48:09;;;;;;;7.23;4.33;;;2.30;99.90;;;;;;4999121;28;20181;-47
2021/11/26 06:50:35;;;;;;;9.23;4.77;;;2.30;99.90;;;;;;4994591;28;20508;-45
2021/11/26 06:53:03;;;;;;;10.47;5.23;;;2.30;99.90;;;;;;4994497;28;20192;-45
2021/11/26 06:55:28;;;;;;;8.10;4.27;;;2.30;99.90;;;;;;4994510;28;20409;-42
2021/11/26 06:57:54;;;;;;;9.83;5.40;;;2.30;99.90;;;;;;5006978;28;20427;-44
2021/11/26 07:00:20;;;;;;;10.23;5.00;;;2.30;99.90;;;;;;5003135;28;20181;-42
2021/11/26 07:02:46;;;;;;;10.17;5.03;;;2.30;99.90;;;;;;4995521;28;20702;-43
2021/11/26 07:05:11;;;;;;;9.97;4.87;;;2.30;99.90;;;;;;4994403;28;20173;-46
2021/11/26 07:07:37;;;;;;;8.93;4.50;;;2.30;99.90;;;;;;4993145;28;20180;-44
2021/11/26 07:12:34;;;;;;;8.27;4.67;;;2.30;99.90;;;;;;5046186;28;20207;-47
2021/11/26 07:15:00;;;;;;;8.50;4.63;;;2.40;99.90;;;;;;5032300;28;20182;-42
2021/11/26 07:17:26;;;;;;;8.73;4.97;;;2.30;99.90;;;;;;5053248;28;20456;-44
2021/11/26 07:19:51;;;;;;;9.43;4.77;;;2.30;99.90;;;;;;5051746;28;20869;-45
2021/11/26 07:22:18;;;;;;;7.40;4.33;;;2.30;99.90;;;;;;5015766;28;20187;-41
2021/11/26 07:24:45;;;;;;;10.87;5.00;;;2.30;99.90;;;;;;5032890;28;20446;-47
2021/11/26 07:27:11;;;;;;;9.03;5.00;;;2.30;99.90;;;;;;5031547;28;20505;-46
2021/11/26 07:29:37;;;;;;;10.10;4.60;;;2.40;99.90;;;;;;5031989;28;20988;-42
2021/11/26 07:32:04;;;;;;;9.23;4.60;;;2.40;99.90;;;;;;5032929;28;20522;-41
2021/11/26 07:34:29;;;;;;;9.57;4.60;;;2.40;99.90;;;;;;5033387;28;20301;-44
2021/11/26 07:36:55;;;;;;;10.80;5.10;;;2.40;99.90;;;;;;5014187;28;20734;-41
2021/11/26 07:39:31;;;;;;;8.77;4.50;;;2.40;99.90;;;;;;5032340;28;20172;-45
2021/11/26 07:41:57;;;;;;;8.40;4.70;;;2.40;99.90;;;;;;5032641;28;20558;-40
2021/11/26 07:44:23;;;;;;;9.17;4.50;;;2.40;99.90;;;;;;5033151;28;20497;-40
2021/11/26 07:46:48;;;;;;;9.57;4.83;;;2.40;99.90;;;;;;5032590;28;20175;-41
2021/11/26 07:49:14;;;;;;;7.77;4.90;;;2.40;99.90;;;;;;5031393;28;20222;-46
2021/11/26 07:51:40;;;;;;;10.07;5.07;;;2.40;99.90;;;;;;5032914;28;20203;-40
2021/11/26 07:54:05;;;;;;;10.07;5.17;;;2.40;99.90;;;;;;5032635;28;20693;-41
2021/11/26 07:56:35;;;;;;;10.03;5.27;;;3.60;99.90;;;;;;5014878;28;20204;-41
2021/11/26 07:59:01;;;;;;;10.20;5.10;;;2.40;99.90;;;;;;5031571;28;20164;-40
2021/11/26 08:01:26;;;;;;;9.93;5.13;;;2.50;99.90;;;;;;5015441;28;20184;-40
2021/11/26 08:03:52;;;;;;;10.53;5.70;;;2.50;99.90;;;;;;5032822;28;20175;-40
2021/11/26 08:06:18;;;;;;;11.47;5.40;;;2.50;99.90;;;;;;5032101;28;20171;-42
2021/11/26 08:08:43;;;;;;;8.17;5.07;;;2.50;99.90;;;;;;5032618;28;20664;-45
2021/11/26 08:11:09;;;;;;;8.87;4.77;;;2.50;99.90;;;;;;5014469;28;20212;-41
2021/11/26 08:13:35;;;;;;;9.93;5.47;;;2.50;99.90;;;;;;5032617;28;20254;-41
2021/11/26 08:16:01;;;;;;;10.40;5.37;;;2.60;99.90;;;;;;5031969;28;20191;-45
2021/11/26 08:18:27;;;;;;;11.43;5.67;;;2.60;99.90;;;;;;5032350;28;20643;-45
2021/11/26 08:20:52;;;;;;;9.30;4.63;;;2.60;99.90;;;;;;5020102;28;20227;-44
2021/11/26 08:23:18;;;;;;;10.03;5.27;;;2.60;99.90;;;;;;5012633;28;20184;-44
2021/11/26 08:25:44;;;;;;;9.87;5.50;;;2.60;99.90;;;;;;5012486;28;20667;-43
2021/11/26 08:28:09;;;;;;;9.77;5.20;;;2.60;99.90;;;;;;5012433;28;20643;-41
2021/11/26 08:30:35;;;;;;;9.30;5.47;;;2.60;99.90;;;;;;5022281;28;20218;-48
2021/11/26 08:33:01;;;;;;;9.83;5.27;;;2.60;99.90;;;;;;5032092;28;20200;-42
2021/11/26 08:35:27;;;;;;;8.80;4.80;;;2.60;99.90;;;;;;5031993;28;20251;-45
2021/11/26 08:37:54;;;;;;;11.57;5.40;;;2.60;99.90;;;;;;5031731;28;20562;-43
2021/11/26 08:40:19;;;;;;;11.80;5.43;;;2.60;99.90;;;;;;5031955;28;20200;-50
2021/11/26 08:42:46;;;;;;;8.30;4.40;;;2.60;99.90;;;;;;5027555;28;20786;-44
2021/11/26 08:45:12;;;;;;;9.80;5.10;;;2.60;99.90;;;;;;5022070;28;20211;-48
2021/11/26 08:47:40;;;;;;;8.47;4.90;;;2.70;99.90;;;;;;5020731;28;20175;-50
2021/11/26 08:50:09;;;;;;;9.57;5.07;;;2.70;99.90;;;;;;5031515;28;20566;-43
2021/11/26 08:52:35;;;;;;;9.93;5.10;;;2.70;99.90;;;;;;5031979;28;20595;-41
2021/11/26 08:55:03;;;;;;;10.73;5.27;;;2.70;99.90;;;;;;5013955;28;20597;-46
2021/11/26 08:57:29;;;;;;;9.70;5.47;;;2.70;99.90;;;;;;5031427;28;20204;-43
2021/11/26 08:59:55;;;;;;;10.80;5.47;;;2.70;99.90;;;;;;5028020;28;20202;-48
2021/11/26 09:02:21;;;;;;;9.53;5.27;;;2.70;99.90;;;;;;5031363;28;20176;-44
2021/11/26 09:04:47;;;;;;;9.57;5.30;;;2.70;99.90;;;;;;5031330;28;20610;-43
2021/11/26 09:07:13;;;;;;;9.27;5.47;;;2.70;99.90;;;;;;5030805;28;20536;-42
2021/11/26 09:09:38;;;;;;;11.80;6.17;;;2.70;99.90;;;;;;5031193;28;20178;-41
2021/11/26 09:12:04;;;;;;;10.97;5.43;;;2.70;99.90;;;;;;5031479;28;20215;-46
2021/11/26 09:14:30;;;;;;;11.50;5.80;;;2.70;99.90;;;;;;5031072;28;20176;-55
2021/11/26 09:16:56;;;;;;;9.50;5.20;;;2.70;99.90;;;;;;5030184;28;20448;-41
2021/11/26 09:19:21;;;;;;;12.37;6.03;;;2.70;99.90;;;;;;5030965;28;20183;-42
2021/11/26 09:21:47;;;;;;;11.53;5.57;;;2.70;99.90;;;;;;5031398;28;20199;-43
2021/11/26 09:24:12;;;;;;;12.17;6.13;;;2.70;99.90;;;;;;5031399;28;20542;-48
2021/11/26 09:26:38;;;;;;;10.40;6.23;;;3.80;99.90;;;;;;5030762;28;20314;-40
2021/11/26 09:29:04;;;;;;;9.67;5.40;;;2.70;99.90;;;;;;5031260;28;20647;-41
2021/11/26 09:31:30;;;;;;;10.27;5.73;;;2.70;99.90;;;;;;5030771;28;20246;-42
2021/11/26 09:33:56;;;;;;;10.30;5.87;;;2.70;99.90;;;;;;5031324;28;20187;-47
2021/11/26 09:36:24;;;;;;;10.60;5.63;;;2.60;99.90;;;;;;5030821;28;20241;-47
2021/11/26 09:38:50;;;;;;;12.47;5.93;;;2.70;99.90;;;;;;5029627;28;20178;-41
2021/11/26 09:41:16;;;;;;;10.57;5.60;;;2.60;99.90;;;;;;5031361;28;20937;-49
2021/11/26 09:43:44;;;;;;;10.50;5.50;;;2.70;99.90;;;;;;5031012;28;20166;-46
2021/11/26 09:46:11;;;;;;;12.00;7.10;;;2.70;99.90;;;;;;5030464;28;20172;-46
2021/11/26 09:48:39;;;;;;;11.73;7.33;;;2.70;99.90;;;;;;5030899;28;20411;-42
2021/11/26 09:51:06;;;;;;;12.10;7.13;;;2.70;99.90;;;;;;5031164;28;20547;-41
2021/11/26 09:53:32;;;;;;;13.37;7.77;;;2.80;99.90;;;;;;5031111;28;20603;-41
2021/11/26 09:56:01;;;;;;;13.20;7.13;;;2.80;99.90;;;;;;5030002;28;20208;-41
2021/11/26 09:58:29;;;;;;;11.70;6.57;;;2.80;99.90;;;;;;5031004;28;20635;-40
2021/11/26 10:00:58;;;;;;;12.90;6.70;;;2.80;99.90;;;;;;5030575;28;20862;-40
2021/11/26 10:03:37;;;;;;;11.80;6.43;;;2.80;99.90;;;;;;5031122;28;20172;-42
2021/11/26 10:06:02;;;;;;;10.80;6.73;;;2.80;99.90;;;;;;5030704;28;20168;-41
2021/11/26 10:08:28;;;;;;;10.60;6.30;;;2.80;99.90;;;;;;5028138;28;20716;-40
2021/11/26 10:11:01;;;;;;;9.93;6.10;;;2.80;99.90;;;;;;5028358;28;20219;-52
2021/11/26 10:13:31;;;;;;;10.83;5.80;;;2.80;99.90;;;;;;5015248;28;20180;-40
2021/11/26 10:16:08;;;;;;;10.00;5.90;;;2.80;99.90;;;;;;5030354;28;20228;-41
2021/11/26 10:18:34;;;;;;;9.60;5.60;;;2.80;99.90;;;;;;5010785;28;20176;-49
2021/11/26 10:21:06;;;;;;;10.63;5.70;;;2.80;99.90;;;;;;5011124;28;20706;-42
2021/11/26 10:23:38;;;;;;;8.77;5.20;;;2.80;99.90;;;;;;4997779;28;20628;-44
2021/11/26 10:26:23;;;;;;;9.57;5.20;;;2.80;99.90;;;;;;5013869;28;20268;-48
2021/11/26 10:29:08;;;;;;;9.20;5.00;;;2.80;99.90;;;;;;5014794;28;20795;-40
2021/11/26 10:31:38;;;;;;;11.27;6.20;;;2.90;99.90;;;;;;5014332;28;20236;-44
2021/11/26 10:34:06;;;;;;;9.67;5.43;;;2.90;99.90;;;;;;5014552;28;20260;-44
2021/11/26 10:36:42;;;;;;;8.43;4.83;;;2.90;99.90;;;;;;5023937;28;20207;-46
2021/11/26 10:39:26;;;;;;;8.10;4.93;;;2.90;99.90;;;;;;5034370;28;20214;-46
2021/11/26 10:41:55;;;;;;;8.97;5.07;;;2.90;99.90;;;;;;5033821;28;20674;-41
2021/11/26 10:44:43;;;;;;;8.43;4.63;;;2.80;99.90;;;;;;5033598;28;20172;-42
2021/11/26 10:49:48;;;;;;;8.23;4.73;;;2.90;99.90;;;;;;5025922;28;20585;-41
2021/11/26 10:56:43;;;;;;;8.83;4.63;;;2.80;99.90;;;;;;5014984;28;20730;-42
2021/11/26 10:58:15;;;;;;;10.37;5.13;;;2.90;99.90;;;;;;5014016;28;20304;-42
2021/11/26 11:00:40;;;;;;;8.83;5.07;;;2.90;99.90;;;;;;5013720;28;20218;-45
2021/11/26 11:03:06;;;;;;;6.97;4.33;;;2.90;99.90;;;;;;5013898;28;20183;-41
2021/11/26 11:05:39;;;;;;;6.70;3.70;;;3.00;99.90;;;;;;5013320;28;20248;-42
2021/11/26 11:08:25;;;;;;;8.83;4.43;;;3.00;99.90;;;;;;5015856;28;20201;-41
2021/11/26 11:10:52;;;;;;;8.00;4.33;;;3.00;99.90;;;;;;5012233;28;20635;-41
2021/11/26 11:13:24;;;;;;;9.17;4.63;;;3.00;99.90;;;;;;5013705;28;20251;-44
2021/11/26 11:15:50;;;;;;;8.53;4.93;;;3.00;99.90;;;;;;5013523;28;20218;-40
2021/11/26 11:18:17;;;;;;;7.57;4.43;;;3.00;99.90;;;;;;5013563;28;20181;-40
2021/11/26 11:20:44;;;;;;;7.33;4.40;;;3.00;99.90;;;;;;5013659;28;20224;-47
2021/11/26 11:23:13;;;;;;;6.70;4.40;;;3.00;99.90;;;;;;5013489;28;20231;-43
2021/11/26 11:25:39;;;;;;;7.27;4.77;;;3.00;99.90;;;;;;5013309;28;20663;-45
2021/11/26 11:28:08;;;;;;;6.73;4.00;;;3.00;99.90;;;;;;5017576;28;20210;-43
2021/11/26 11:30:35;;;;;;;7.97;4.50;;;3.00;99.90;;;;;;5032238;28;20196;-44
2021/11/26 11:33:01;;;;;;;9.47;5.33;;;3.00;99.90;;;;;;5033462;28;20202;-43
2021/11/26 11:35:30;;;;;;;6.80;4.33;;;3.00;99.90;;;;;;5030775;28;20642;-47
2021/11/26 11:37:58;;;;;;;8.10;4.50;;;3.00;99.90;;;;;;5015056;28;20269;-44
2021/11/26 11:40:30;;;;;;;8.07;4.47;;;2.90;99.90;;;;;;5023166;28;20248;-49
2021/11/26 11:43:08;;;;;;;8.03;4.37;;;2.90;99.90;;;;;;5032822;28;20180;-43
2021/11/26 11:45:34;;;;;;;8.53;4.83;;;2.90;99.90;;;;;;5029043;28;20804;-40
2021/11/26 11:48:00;;;;;;;7.40;4.13;;;2.90;99.90;;;;;;5030325;28;20539;-46
2021/11/26 11:50:31;;;;;;;8.40;4.60;;;2.90;99.90;;;;;;5026911;28;20737;-41
2021/11/26 11:53:01;;;;;;;6.90;4.10;;;2.90;99.90;;;;;;5024582;28;20419;-49
2021/11/26 11:55:39;;;;;;;8.73;4.20;;;2.90;99.90;;;;;;5025381;28;20415;-41
2021/11/26 11:58:22;;;;;;;7.87;4.43;;;2.90;99.90;;;;;;5022567;28;20531;-40
2021/11/26 12:00:51;;;;;;;6.33;3.90;;;2.80;99.90;;;;;;5025808;28;20192;-40
2021/11/26 12:03:20;;;;;;;9.17;4.60;;;2.80;99.90;;;;;;5027586;28;20176;-40
2021/11/26 12:06:05;;;;;;;8.53;4.37;;;2.90;99.90;;;;;;5029872;28;20176;-43
2021/11/26 12:08:42;;;;;;;8.67;4.87;;;2.80;99.90;;;;;;5030852;28;20183;-45
2021/11/26 12:11:07;;;;;;;10.67;5.53;;;2.80;99.90;;;;;;5022703;28;20233;-41
2021/11/26 12:13:35;;;;;;;9.73;4.60;;;2.80;99.90;;;;;;5029815;28;20179;-45
2021/11/26 12:16:11;;;;;;;9.90;5.07;;;2.80;99.90;;;;;;5014942;28;20200;-42
2021/11/26 12:18:57;;;;;;;8.13;4.73;;;2.80;99.90;;;;;;5025064;28;20510;-44
2021/11/26 12:21:30;;;;;;;7.33;4.20;;;2.80;99.90;;;;;;5030900;28;20207;-42
2021/11/26 12:27:08;;;;;;;8.40;4.83;;;2.70;99.90;;;;;;4950454;29;20710;-41
2021/11/26 12:29:51;;;;;;;7.27;4.37;;;2.70;99.90;;;;;;4951090;29;20262;-47
2021/11/26 12:32:28;;;;;;;8.40;4.77;;;2.70;99.90;;;;;;4950259;29;20174;-40
2021/11/26 12:34:58;;;;;;;10.93;5.77;;;2.70;99.90;;;;;;4950080;29;20314;-47
2021/11/26 12:37:33;;;;;;;10.30;5.43;;;2.70;99.90;;;;;;4950943;29;20214;-42
2021/11/26 12:40:04;;;;;;;8.50;4.67;;;2.70;99.90;;;;;;4950828;29;20227;-41
2021/11/26 12:42:29;;;;;;;8.60;4.80;;;2.70;99.90;;;;;;4951768;29;20422;-43
2021/11/26 12:45:00;;;;;;;10.77;5.13;;;2.70;99.90;;;;;;4949452;28;20190;-41
2021/11/26 12:47:45;;;;;;;8.77;4.90;;;2.70;99.90;;;;;;4949922;28;20187;-41
2021/11/26 12:53:25;;;;;;;8.60;5.10;;;2.70;99.90;;;;;;4951956;29;20222;-40
2021/11/26 12:56:12;;;;;;;8.53;5.23;;;2.70;99.90;;;;;;4950627;29;20648;-41
2021/11/26 12:58:43;;;;;;;8.93;4.47;;;2.80;99.90;;;;;;4951388;29;20170;-43
2021/11/26 13:01:10;;;;;;;29.50;19.63;;;2.80;99.90;;;;;;4951339;29;20195;-43
2021/11/26 13:03:45;;;;;;;41.97;29.07;;;2.80;99.90;;;;;;4986029;28;20176;-43
2021/11/26 13:06:11;;;;;;;47.00;31.87;;;2.80;99.90;;;;;;5010739;28;20176;-46
2021/11/26 13:08:39;;;;;;;44.53;30.23;;;2.80;99.90;;;;;;4994201;28;20200;-42
2021/11/26 13:11:06;;;;;;;42.27;30.83;;;2.80;99.90;;;;;;5023865;23;20231;-42